sensor_id;sensor_type;location;lat;lon;timestamp;temperature;humidity
37232;DHT22;23125;48.156;15.954;2023-07-31T00:02:15;22.60;55.80
37232;DHT22;23125;48.156;15.954;2023-07-31T00:04:41;22.60;55.90
37232;DHT22;23125;48.156;15.954;2023-07-31T00:07:07;22.50;55.80
37232;DHT22;23125;48.156;15.954;2023-07-31T00:09:33;22.50;55.90
37232;DHT22;23125;48.156;15.954;2023-07-31T00:11:59;22.40;55.80
37232;DHT22;23125;48.156;15.954;2023-07-31T00:14:25;22.40;55.80
37232;DHT22;23125;48.156;15.954;2023-07-31T00:16:51;22.40;55.80
37232;DHT22;23125;48.156;15.954;2023-07-31T00:19:17;22.40;55.80
37232;DHT22;23125;48.156;15.954;2023-07-31T00:21:44;22.40;55.80
37232;DHT22;23125;48.156;15.954;2023-07-31T00:24:10;22.40;55.80
37232;DHT22;23125;48.156;15.954;2023-07-31T00:26:36;22.40;55.90
37232;DHT22;23125;48.156;15.954;2023-07-31T00:29:01;22.40;55.90
37232;DHT22;23125;48.156;15.954;2023-07-31T00:31:27;22.30;55.80
37232;DHT22;23125;48.156;15.954;2023-07-31T00:33:53;22.30;55.90
37232;DHT22;23125;48.156;15.954;2023-07-31T00:36:19;22.20;56.00
37232;DHT22;23125;48.156;15.954;2023-07-31T00:38:45;22.30;56.10
37232;DHT22;23125;48.156;15.954;2023-07-31T00:41:11;22.20;56.10
37232;DHT22;23125;48.156;15.954;2023-07-31T00:43:36;22.20;56.20
37232;DHT22;23125;48.156;15.954;2023-07-31T00:46:02;22.20;56.30
37232;DHT22;23125;48.156;15.954;2023-07-31T00:48:28;22.20;56.30
37232;DHT22;23125;48.156;15.954;2023-07-31T00:50:54;22.10;56.20
37232;DHT22;23125;48.156;15.954;2023-07-31T00:53:20;22.20;56.40
37232;DHT22;23125;48.156;15.954;2023-07-31T00:55:46;22.10;56.90
37232;DHT22;23125;48.156;15.954;2023-07-31T00:58:12;22.10;56.40
37232;DHT22;23125;48.156;15.954;2023-07-31T01:00:38;22.10;56.40
37232;DHT22;23125;48.156;15.954;2023-07-31T01:03:04;22.10;56.40
37232;DHT22;23125;48.156;15.954;2023-07-31T01:05:46;22.10;56.60
37232;DHT22;23125;48.156;15.954;2023-07-31T01:11:15;22.10;56.80
37232;DHT22;23125;48.156;15.954;2023-07-31T01:13:44;22.10;56.90
37232;DHT22;23125;48.156;15.954;2023-07-31T01:16:12;22.10;57.10
37232;DHT22;23125;48.156;15.954;2023-07-31T01:18:37;22.10;57.30
37232;DHT22;23125;48.156;15.954;2023-07-31T01:26:36;22.10;57.60
37232;DHT22;23125;48.156;15.954;2023-07-31T01:31:35;22.10;58.10
37232;DHT22;23125;48.156;15.954;2023-07-31T01:34:02;22.10;58.30
37232;DHT22;23125;48.156;15.954;2023-07-31T01:36:30;22.10;58.40
37232;DHT22;23125;48.156;15.954;2023-07-31T01:39:00;22.10;58.60
37232;DHT22;23125;48.156;15.954;2023-07-31T01:41:27;22.10;58.70
37232;DHT22;23125;48.156;15.954;2023-07-31T01:43:53;22.10;58.70
37232;DHT22;23125;48.156;15.954;2023-07-31T01:46:19;22.10;58.80
37232;DHT22;23125;48.156;15.954;2023-07-31T01:48:45;22.10;58.80
37232;DHT22;23125;48.156;15.954;2023-07-31T01:51:11;22.10;58.90
37232;DHT22;23125;48.156;15.954;2023-07-31T01:53:36;22.10;59.00
37232;DHT22;23125;48.156;15.954;2023-07-31T01:56:02;22.10;59.10
37232;DHT22;23125;48.156;15.954;2023-07-31T01:58:28;22.10;59.10
37232;DHT22;23125;48.156;15.954;2023-07-31T02:00:54;22.10;59.10
37232;DHT22;23125;48.156;15.954;2023-07-31T02:03:20;22.00;59.20
37232;DHT22;23125;48.156;15.954;2023-07-31T02:05:47;22.00;59.20
37232;DHT22;23125;48.156;15.954;2023-07-31T02:08:14;22.00;59.20
37232;DHT22;23125;48.156;15.954;2023-07-31T02:10:40;22.00;59.20
37232;DHT22;23125;48.156;15.954;2023-07-31T02:13:06;22.00;59.10
37232;DHT22;23125;48.156;15.954;2023-07-31T02:15:33;22.00;59.70
37232;DHT22;23125;48.156;15.954;2023-07-31T02:17:58;22.00;59.10
37232;DHT22;23125;48.156;15.954;2023-07-31T02:20:24;21.90;59.10
37232;DHT22;23125;48.156;15.954;2023-07-31T02:22:51;21.90;59.10
37232;DHT22;23125;48.156;15.954;2023-07-31T02:25:17;21.90;59.10
37232;DHT22;23125;48.156;15.954;2023-07-31T02:27:43;21.90;59.00
37232;DHT22;23125;48.156;15.954;2023-07-31T02:30:09;21.90;59.00
37232;DHT22;23125;48.156;15.954;2023-07-31T02:32:35;21.90;59.10
37232;DHT22;23125;48.156;15.954;2023-07-31T02:35:01;21.90;59.00
37232;DHT22;23125;48.156;15.954;2023-07-31T02:37:27;22.00;59.20
37232;DHT22;23125;48.156;15.954;2023-07-31T02:39:55;22.00;59.10
37232;DHT22;23125;48.156;15.954;2023-07-31T02:42:20;21.90;59.10
37232;DHT22;23125;48.156;15.954;2023-07-31T02:44:46;21.90;59.10
37232;DHT22;23125;48.156;15.954;2023-07-31T02:47:12;22.00;59.10
37232;DHT22;23125;48.156;15.954;2023-07-31T02:49:38;21.90;59.10
37232;DHT22;23125;48.156;15.954;2023-07-31T02:52:04;21.90;59.00
37232;DHT22;23125;48.156;15.954;2023-07-31T02:54:30;21.90;59.00
37232;DHT22;23125;48.156;15.954;2023-07-31T02:56:56;22.00;59.00
37232;DHT22;23125;48.156;15.954;2023-07-31T02:59:21;22.00;58.80
37232;DHT22;23125;48.156;15.954;2023-07-31T03:01:47;22.00;58.80
37232;DHT22;23125;48.156;15.954;2023-07-31T03:04:13;22.00;58.70
37232;DHT22;23125;48.156;15.954;2023-07-31T03:06:39;22.00;58.60
37232;DHT22;23125;48.156;15.954;2023-07-31T03:09:05;21.90;58.30
37232;DHT22;23125;48.156;15.954;2023-07-31T03:11:31;22.00;58.30
37232;DHT22;23125;48.156;15.954;2023-07-31T03:13:56;21.90;58.30
37232;DHT22;23125;48.156;15.954;2023-07-31T03:16:22;21.90;58.20
37232;DHT22;23125;48.156;15.954;2023-07-31T03:18:48;21.90;58.10
37232;DHT22;23125;48.156;15.954;2023-07-31T03:21:14;21.90;58.00
37232;DHT22;23125;48.156;15.954;2023-07-31T03:23:40;21.90;58.00
37232;DHT22;23125;48.156;15.954;2023-07-31T03:26:07;21.90;58.40
37232;DHT22;23125;48.156;15.954;2023-07-31T03:28:34;21.90;57.70
37232;DHT22;23125;48.156;15.954;2023-07-31T03:31:00;21.90;57.70
37232;DHT22;23125;48.156;15.954;2023-07-31T03:33:26;21.90;57.60
37232;DHT22;23125;48.156;15.954;2023-07-31T03:35:52;21.90;57.60
37232;DHT22;23125;48.156;15.954;2023-07-31T03:38:19;21.90;57.40
37232;DHT22;23125;48.156;15.954;2023-07-31T03:40:45;21.90;57.40
37232;DHT22;23125;48.156;15.954;2023-07-31T03:43:12;21.90;57.30
37232;DHT22;23125;48.156;15.954;2023-07-31T03:45:38;21.90;57.10
37232;DHT22;23125;48.156;15.954;2023-07-31T03:48:04;21.90;57.00
37232;DHT22;23125;48.156;15.954;2023-07-31T03:50:30;21.90;56.80
37232;DHT22;23125;48.156;15.954;2023-07-31T03:52:56;21.90;56.70
37232;DHT22;23125;48.156;15.954;2023-07-31T03:55:22;21.90;56.70
37232;DHT22;23125;48.156;15.954;2023-07-31T03:57:48;21.90;56.60
37232;DHT22;23125;48.156;15.954;2023-07-31T04:00:14;21.90;56.50
37232;DHT22;23125;48.156;15.954;2023-07-31T04:02:39;21.90;56.50
37232;DHT22;23125;48.156;15.954;2023-07-31T04:05:06;21.90;56.40
37232;DHT22;23125;48.156;15.954;2023-07-31T04:07:32;21.90;56.20
37232;DHT22;23125;48.156;15.954;2023-07-31T04:09:58;21.90;56.20
37232;DHT22;23125;48.156;15.954;2023-07-31T04:12:24;21.90;56.20
37232;DHT22;23125;48.156;15.954;2023-07-31T04:14:49;21.80;56.00
37232;DHT22;23125;48.156;15.954;2023-07-31T04:17:17;21.80;56.00
37232;DHT22;23125;48.156;15.954;2023-07-31T04:19:43;21.80;56.00
37232;DHT22;23125;48.156;15.954;2023-07-31T04:22:08;21.80;55.90
37232;DHT22;23125;48.156;15.954;2023-07-31T04:24:34;21.80;56.00
37232;DHT22;23125;48.156;15.954;2023-07-31T04:27:00;21.80;56.00
37232;DHT22;23125;48.156;15.954;2023-07-31T04:29:26;21.80;56.10
37232;DHT22;23125;48.156;15.954;2023-07-31T04:31:52;21.80;56.10
37232;DHT22;23125;48.156;15.954;2023-07-31T04:34:18;21.80;56.10
37232;DHT22;23125;48.156;15.954;2023-07-31T04:36:43;21.90;56.10
37232;DHT22;23125;48.156;15.954;2023-07-31T04:39:09;21.90;56.10
37232;DHT22;23125;48.156;15.954;2023-07-31T04:41:35;21.90;56.20
37232;DHT22;23125;48.156;15.954;2023-07-31T04:44:01;21.90;56.20
37232;DHT22;23125;48.156;15.954;2023-07-31T04:46:29;22.00;56.20
37232;DHT22;23125;48.156;15.954;2023-07-31T04:48:56;21.90;56.10
37232;DHT22;23125;48.156;15.954;2023-07-31T04:51:22;22.00;56.20
37232;DHT22;23125;48.156;15.954;2023-07-31T04:53:49;22.10;56.20
37232;DHT22;23125;48.156;15.954;2023-07-31T04:56:15;22.10;56.20
37232;DHT22;23125;48.156;15.954;2023-07-31T04:58:41;22.10;56.20
37232;DHT22;23125;48.156;15.954;2023-07-31T05:01:07;22.20;56.20
37232;DHT22;23125;48.156;15.954;2023-07-31T05:03:33;22.30;56.30
37232;DHT22;23125;48.156;15.954;2023-07-31T05:05:59;22.30;56.30
37232;DHT22;23125;48.156;15.954;2023-07-31T05:08:24;22.30;56.20
37232;DHT22;23125;48.156;15.954;2023-07-31T05:10:51;22.40;56.20
37232;DHT22;23125;48.156;15.954;2023-07-31T05:13:17;22.50;56.30
37232;DHT22;23125;48.156;15.954;2023-07-31T05:15:43;22.60;56.30
37232;DHT22;23125;48.156;15.954;2023-07-31T05:18:08;22.70;56.30
37232;DHT22;23125;48.156;15.954;2023-07-31T05:20:34;23.00;56.80
37232;DHT22;23125;48.156;15.954;2023-07-31T05:23:00;23.40;57.50
37232;DHT22;23125;48.156;15.954;2023-07-31T05:25:26;24.00;57.60
37232;DHT22;23125;48.156;15.954;2023-07-31T05:27:52;24.50;57.20
37232;DHT22;23125;48.156;15.954;2023-07-31T05:30:18;25.00;55.70
37232;DHT22;23125;48.156;15.954;2023-07-31T05:32:43;25.30;54.60
37232;DHT22;23125;48.156;15.954;2023-07-31T05:35:09;25.70;54.30
37232;DHT22;23125;48.156;15.954;2023-07-31T05:37:35;26.30;53.80
37232;DHT22;23125;48.156;15.954;2023-07-31T05:40:01;26.80;52.90
37232;DHT22;23125;48.156;15.954;2023-07-31T05:42:27;27.30;51.50
37232;DHT22;23125;48.156;15.954;2023-07-31T05:44:52;27.60;50.40
37232;DHT22;23125;48.156;15.954;2023-07-31T05:47:18;27.90;49.50
37232;DHT22;23125;48.156;15.954;2023-07-31T05:49:44;28.10;48.00
37232;DHT22;23125;48.156;15.954;2023-07-31T05:52:10;28.40;47.80
37232;DHT22;23125;48.156;15.954;2023-07-31T05:54:36;28.90;47.30
37232;DHT22;23125;48.156;15.954;2023-07-31T05:57:01;29.10;46.40
37232;DHT22;23125;48.156;15.954;2023-07-31T05:59:27;29.10;44.90
37232;DHT22;23125;48.156;15.954;2023-07-31T06:01:53;29.10;44.00
37232;DHT22;23125;48.156;15.954;2023-07-31T06:04:19;29.10;43.40
37232;DHT22;23125;48.156;15.954;2023-07-31T06:06:45;29.00;43.30
37232;DHT22;23125;48.156;15.954;2023-07-31T06:09:10;29.00;42.90
37232;DHT22;23125;48.156;15.954;2023-07-31T06:11:37;28.70;41.90
37232;DHT22;23125;48.156;15.954;2023-07-31T06:14:03;28.50;42.20
37232;DHT22;23125;48.156;15.954;2023-07-31T06:16:29;28.60;43.00
37232;DHT22;23125;48.156;15.954;2023-07-31T06:18:54;28.80;43.10
37232;DHT22;23125;48.156;15.954;2023-07-31T06:21:20;28.70;42.10
37232;DHT22;23125;48.156;15.954;2023-07-31T06:23:46;28.70;42.60
37232;DHT22;23125;48.156;15.954;2023-07-31T06:26:12;28.60;41.80
37232;DHT22;23125;48.156;15.954;2023-07-31T06:28:38;28.40;41.60
37232;DHT22;23125;48.156;15.954;2023-07-31T06:31:03;28.40;41.60
37232;DHT22;23125;48.156;15.954;2023-07-31T06:33:29;28.20;41.60
37232;DHT22;23125;48.156;15.954;2023-07-31T06:35:55;28.30;42.30
37232;DHT22;23125;48.156;15.954;2023-07-31T06:38:24;28.40;42.50
37232;DHT22;23125;48.156;15.954;2023-07-31T06:40:50;28.40;42.30
37232;DHT22;23125;48.156;15.954;2023-07-31T06:43:16;28.50;42.10
37232;DHT22;23125;48.156;15.954;2023-07-31T06:45:42;28.50;41.90
37232;DHT22;23125;48.156;15.954;2023-07-31T06:48:08;28.50;41.50
37232;DHT22;23125;48.156;15.954;2023-07-31T06:50:34;28.50;41.60
37232;DHT22;23125;48.156;15.954;2023-07-31T06:53:00;28.40;41.10
37232;DHT22;23125;48.156;15.954;2023-07-31T06:55:26;28.40;40.70
37232;DHT22;23125;48.156;15.954;2023-07-31T06:57:54;28.30;40.50
37232;DHT22;23125;48.156;15.954;2023-07-31T07:00:21;28.30;40.70
37232;DHT22;23125;48.156;15.954;2023-07-31T07:02:48;28.20;41.00
37232;DHT22;23125;48.156;15.954;2023-07-31T07:05:15;28.30;41.00
37232;DHT22;23125;48.156;15.954;2023-07-31T07:07:41;28.30;41.10
37232;DHT22;23125;48.156;15.954;2023-07-31T07:10:08;28.40;41.20
37232;DHT22;23125;48.156;15.954;2023-07-31T07:12:35;28.50;41.10
37232;DHT22;23125;48.156;15.954;2023-07-31T07:15:01;28.60;41.00
37232;DHT22;23125;48.156;15.954;2023-07-31T07:17:29;28.60;40.40
37232;DHT22;23125;48.156;15.954;2023-07-31T07:19:58;28.50;39.90
37232;DHT22;23125;48.156;15.954;2023-07-31T07:22:24;28.50;39.80
37232;DHT22;23125;48.156;15.954;2023-07-31T07:24:51;28.50;40.00
37232;DHT22;23125;48.156;15.954;2023-07-31T07:27:17;28.80;41.30
37232;DHT22;23125;48.156;15.954;2023-07-31T07:29:43;29.30;42.00
37232;DHT22;23125;48.156;15.954;2023-07-31T07:32:09;30.10;42.20
37232;DHT22;23125;48.156;15.954;2023-07-31T07:34:35;30.60;41.90
37232;DHT22;23125;48.156;15.954;2023-07-31T07:37:00;31.10;39.60
37232;DHT22;23125;48.156;15.954;2023-07-31T07:39:26;31.30;38.40
37232;DHT22;23125;48.156;15.954;2023-07-31T07:41:52;31.70;38.70
37232;DHT22;23125;48.156;15.954;2023-07-31T07:44:19;32.10;37.90
37232;DHT22;23125;48.156;15.954;2023-07-31T07:46:45;32.70;37.40
37232;DHT22;23125;48.156;15.954;2023-07-31T07:49:11;33.10;36.10
37232;DHT22;23125;48.156;15.954;2023-07-31T07:51:37;33.40;35.60
37232;DHT22;23125;48.156;15.954;2023-07-31T07:54:02;33.60;34.50
37232;DHT22;23125;48.156;15.954;2023-07-31T07:56:28;33.90;34.00
37232;DHT22;23125;48.156;15.954;2023-07-31T07:58:54;34.20;34.00
37232;DHT22;23125;48.156;15.954;2023-07-31T08:01:20;34.40;32.60
37232;DHT22;23125;48.156;15.954;2023-07-31T08:03:47;34.70;32.90
37232;DHT22;23125;48.156;15.954;2023-07-31T08:06:14;34.90;32.30
37232;DHT22;23125;48.156;15.954;2023-07-31T08:08:40;35.10;31.90
37232;DHT22;23125;48.156;15.954;2023-07-31T08:11:06;35.30;31.20
37232;DHT22;23125;48.156;15.954;2023-07-31T08:13:32;35.40;30.50
37232;DHT22;23125;48.156;15.954;2023-07-31T08:15:58;35.40;29.80
37232;DHT22;23125;48.156;15.954;2023-07-31T08:18:24;35.30;30.00
37232;DHT22;23125;48.156;15.954;2023-07-31T08:20:50;35.30;29.90
37232;DHT22;23125;48.156;15.954;2023-07-31T08:23:15;35.40;30.10
37232;DHT22;23125;48.156;15.954;2023-07-31T08:25:42;35.60;29.80
37232;DHT22;23125;48.156;15.954;2023-07-31T08:28:08;35.60;29.30
37232;DHT22;23125;48.156;15.954;2023-07-31T08:30:33;35.40;28.80
37232;DHT22;23125;48.156;15.954;2023-07-31T08:33:00;34.90;28.30
37232;DHT22;23125;48.156;15.954;2023-07-31T08:35:26;34.70;28.70
37232;DHT22;23125;48.156;15.954;2023-07-31T08:37:55;34.50;29.00
37232;DHT22;23125;48.156;15.954;2023-07-31T08:40:21;34.60;29.70
37232;DHT22;23125;48.156;15.954;2023-07-31T08:42:48;34.70;29.80
37232;DHT22;23125;48.156;15.954;2023-07-31T08:45:16;34.90;29.50
37232;DHT22;23125;48.156;15.954;2023-07-31T08:47:47;35.10;29.40
37232;DHT22;23125;48.156;15.954;2023-07-31T08:50:14;35.10;28.80
37232;DHT22;23125;48.156;15.954;2023-07-31T08:52:41;35.10;28.50
37232;DHT22;23125;48.156;15.954;2023-07-31T08:55:07;35.20;28.80
37232;DHT22;23125;48.156;15.954;2023-07-31T08:57:35;35.30;28.80
37232;DHT22;23125;48.156;15.954;2023-07-31T09:00:03;35.50;28.80
37232;DHT22;23125;48.156;15.954;2023-07-31T09:02:59;35.70;28.60
37232;DHT22;23125;48.156;15.954;2023-07-31T09:05:27;35.80;28.40
37232;DHT22;23125;48.156;15.954;2023-07-31T09:07:55;35.90;28.30
37232;DHT22;23125;48.156;15.954;2023-07-31T09:10:22;36.10;28.20
37232;DHT22;23125;48.156;15.954;2023-07-31T09:12:50;36.30;28.20
37232;DHT22;23125;48.156;15.954;2023-07-31T09:15:16;36.30;27.60
37232;DHT22;23125;48.156;15.954;2023-07-31T09:17:42;36.20;27.60
37232;DHT22;23125;48.156;15.954;2023-07-31T09:20:19;36.20;27.30
37232;DHT22;23125;48.156;15.954;2023-07-31T09:22:48;36.00;27.20
37232;DHT22;23125;48.156;15.954;2023-07-31T09:25:22;36.00;27.60
37232;DHT22;23125;48.156;15.954;2023-07-31T09:27:58;35.90;27.30
37232;DHT22;23125;48.156;15.954;2023-07-31T09:30:25;35.90;27.50
37232;DHT22;23125;48.156;15.954;2023-07-31T09:32:59;36.00;27.80
37232;DHT22;23125;48.156;15.954;2023-07-31T09:35:33;36.00;27.80
37232;DHT22;23125;48.156;15.954;2023-07-31T09:38:05;36.10;27.70
37232;DHT22;23125;48.156;15.954;2023-07-31T09:40:36;36.10;27.30
37232;DHT22;23125;48.156;15.954;2023-07-31T09:43:04;35.90;26.90
37232;DHT22;23125;48.156;15.954;2023-07-31T09:45:35;35.70;27.00
37232;DHT22;23125;48.156;15.954;2023-07-31T09:48:17;35.60;27.10
37232;DHT22;23125;48.156;15.954;2023-07-31T09:50:48;35.40;27.00
37232;DHT22;23125;48.156;15.954;2023-07-31T09:53:17;35.40;27.30
37232;DHT22;23125;48.156;15.954;2023-07-31T09:55:44;35.20;27.20
37232;DHT22;23125;48.156;15.954;2023-07-31T09:58:11;35.20;27.40
37232;DHT22;23125;48.156;15.954;2023-07-31T10:00:37;35.20;27.50
37232;DHT22;23125;48.156;15.954;2023-07-31T10:03:09;35.10;27.40
37232;DHT22;23125;48.156;15.954;2023-07-31T10:05:40;35.10;27.50
37232;DHT22;23125;48.156;15.954;2023-07-31T10:08:09;35.20;27.70
37232;DHT22;23125;48.156;15.954;2023-07-31T10:10:36;35.30;27.60
37232;DHT22;23125;48.156;15.954;2023-07-31T10:13:04;35.20;27.90
37232;DHT22;23125;48.156;15.954;2023-07-31T10:15:32;35.20;27.50
37232;DHT22;23125;48.156;15.954;2023-07-31T10:17:58;35.00;27.30
37232;DHT22;23125;48.156;15.954;2023-07-31T10:20:26;34.90;27.60
37232;DHT22;23125;48.156;15.954;2023-07-31T10:22:55;34.70;27.70
37232;DHT22;23125;48.156;15.954;2023-07-31T10:25:22;34.70;28.00
37232;DHT22;23125;48.156;15.954;2023-07-31T10:27:49;34.60;27.90
37232;DHT22;23125;48.156;15.954;2023-07-31T10:30:18;34.40;27.90
37232;DHT22;23125;48.156;15.954;2023-07-31T10:32:47;34.10;27.70
37232;DHT22;23125;48.156;15.954;2023-07-31T10:35:16;33.90;27.90
37232;DHT22;23125;48.156;15.954;2023-07-31T10:37:43;33.60;28.10
37232;DHT22;23125;48.156;15.954;2023-07-31T10:40:16;33.40;28.40
37232;DHT22;23125;48.156;15.954;2023-07-31T10:45:36;33.10;28.90
37232;DHT22;23125;48.156;15.954;2023-07-31T10:50:31;32.60;29.10
37232;DHT22;23125;48.156;15.954;2023-07-31T10:53:00;32.50;29.50
37232;DHT22;23125;48.156;15.954;2023-07-31T10:55:31;32.40;29.90
37232;DHT22;23125;48.156;15.954;2023-07-31T10:58:08;32.20;30.00
37232;DHT22;23125;48.156;15.954;2023-07-31T11:00:37;32.10;29.90
37232;DHT22;23125;48.156;15.954;2023-07-31T11:05:45;31.90;30.30
37232;DHT22;23125;48.156;15.954;2023-07-31T11:10:41;31.90;30.80
37232;DHT22;23125;48.156;15.954;2023-07-31T11:13:07;31.80;31.00
37232;DHT22;23125;48.156;15.954;2023-07-31T11:15:33;31.70;30.90
37232;DHT22;23125;48.156;15.954;2023-07-31T11:18:01;31.70;31.10
37232;DHT22;23125;48.156;15.954;2023-07-31T11:20:33;31.60;31.20
37232;DHT22;23125;48.156;15.954;2023-07-31T11:23:05;31.50;31.30
37232;DHT22;23125;48.156;15.954;2023-07-31T11:25:32;31.40;31.60
37232;DHT22;23125;48.156;15.954;2023-07-31T11:28:05;31.30;31.80
37232;DHT22;23125;48.156;15.954;2023-07-31T11:30:32;31.30;32.10
37232;DHT22;23125;48.156;15.954;2023-07-31T11:32:58;31.30;32.30
37232;DHT22;23125;48.156;15.954;2023-07-31T11:35:24;31.20;32.10
37232;DHT22;23125;48.156;15.954;2023-07-31T11:37:50;31.20;32.10
37232;DHT22;23125;48.156;15.954;2023-07-31T11:40:17;31.20;32.10
37232;DHT22;23125;48.156;15.954;2023-07-31T11:42:43;31.10;32.30
37232;DHT22;23125;48.156;15.954;2023-07-31T11:45:09;31.10;32.50
37232;DHT22;23125;48.156;15.954;2023-07-31T11:47:37;31.20;32.70
37232;DHT22;23125;48.156;15.954;2023-07-31T11:50:10;31.20;32.90
37232;DHT22;23125;48.156;15.954;2023-07-31T11:52:41;31.20;32.70
37232;DHT22;23125;48.156;15.954;2023-07-31T11:55:09;31.20;32.80
37232;DHT22;23125;48.156;15.954;2023-07-31T11:57:39;31.20;33.50
37232;DHT22;23125;48.156;15.954;2023-07-31T12:00:10;31.20;32.70
37232;DHT22;23125;48.156;15.954;2023-07-31T12:02:39;31.20;32.60
37232;DHT22;23125;48.156;15.954;2023-07-31T12:05:13;31.20;32.70
37232;DHT22;23125;48.156;15.954;2023-07-31T12:07:52;31.20;32.90
37232;DHT22;23125;48.156;15.954;2023-07-31T12:10:29;31.10;32.40
37232;DHT22;23125;48.156;15.954;2023-07-31T12:13:00;31.10;32.40
37232;DHT22;23125;48.156;15.954;2023-07-31T12:15:53;31.00;32.50
37232;DHT22;23125;48.156;15.954;2023-07-31T12:18:20;30.90;32.40
37232;DHT22;23125;48.156;15.954;2023-07-31T12:20:48;30.80;32.40
37232;DHT22;23125;48.156;15.954;2023-07-31T12:23:17;30.80;32.50
37232;DHT22;23125;48.156;15.954;2023-07-31T12:25:43;30.80;32.70
37232;DHT22;23125;48.156;15.954;2023-07-31T12:28:09;30.70;32.50
37232;DHT22;23125;48.156;15.954;2023-07-31T12:30:39;30.60;32.80
37232;DHT22;23125;48.156;15.954;2023-07-31T12:33:10;30.60;32.80
37232;DHT22;23125;48.156;15.954;2023-07-31T12:35:40;30.50;32.70
37232;DHT22;23125;48.156;15.954;2023-07-31T12:38:06;30.50;32.50
37232;DHT22;23125;48.156;15.954;2023-07-31T12:40:32;30.40;32.40
37232;DHT22;23125;48.156;15.954;2023-07-31T12:43:01;30.40;32.40
37232;DHT22;23125;48.156;15.954;2023-07-31T12:45:29;30.30;32.30
37232;DHT22;23125;48.156;15.954;2023-07-31T12:47:56;30.30;32.30
37232;DHT22;23125;48.156;15.954;2023-07-31T12:50:23;30.20;32.50
37232;DHT22;23125;48.156;15.954;2023-07-31T12:52:49;30.20;32.60
